sensor_id;sensor_type;location;lat;lon;timestamp;P1;durP1;ratioP1;P2;durP2;ratioP2
12950;SDS011;6540;50.858;7.232;2023-02-25T00:01:53;5.90;;;2.17;;
12950;SDS011;6540;50.858;7.232;2023-02-25T00:04:20;10.73;;;2.83;;
12950;SDS011;6540;50.858;7.232;2023-02-25T00:06:45;14.73;;;3.37;;
12950;SDS011;6540;50.858;7.232;2023-02-25T00:09:11;7.67;;;2.53;;
12950;SDS011;6540;50.858;7.232;2023-02-25T00:11:36;10.33;;;2.50;;
12950;SDS011;6540;50.858;7.232;2023-02-25T00:14:02;7.03;;;2.43;;
12950;SDS011;6540;50.858;7.232;2023-02-25T00:16:27;5.10;;;2.23;;
12950;SDS011;6540;50.858;7.232;2023-02-25T00:18:53;6.23;;;2.63;;
12950;SDS011;6540;50.858;7.232;2023-02-25T00:21:20;9.73;;;2.60;;
12950;SDS011;6540;50.858;7.232;2023-02-25T00:23:46;9.47;;;2.53;;
12950;SDS011;6540;50.858;7.232;2023-02-25T00:26:13;5.70;;;2.17;;
12950;SDS011;6540;50.858;7.232;2023-02-25T00:28:39;5.50;;;2.50;;
12950;SDS011;6540;50.858;7.232;2023-02-25T00:31:09;13.50;;;3.57;;
12950;SDS011;6540;50.858;7.232;2023-02-25T00:33:40;6.77;;;2.33;;
12950;SDS011;6540;50.858;7.232;2023-02-25T00:36:11;11.03;;;2.93;;
12950;SDS011;6540;50.858;7.232;2023-02-25T00:38:38;8.00;;;2.33;;
12950;SDS011;6540;50.858;7.232;2023-02-25T00:41:05;9.90;;;3.40;;
12950;SDS011;6540;50.858;7.232;2023-02-25T00:43:39;5.40;;;2.70;;
12950;SDS011;6540;50.858;7.232;2023-02-25T00:46:06;10.40;;;2.77;;
12950;SDS011;6540;50.858;7.232;2023-02-25T00:48:32;9.30;;;3.20;;
12950;SDS011;6540;50.858;7.232;2023-02-25T00:51:02;13.27;;;2.77;;
12950;SDS011;6540;50.858;7.232;2023-02-25T00:53:29;8.60;;;2.90;;
12950;SDS011;6540;50.858;7.232;2023-02-25T00:56:00;13.73;;;2.93;;
12950;SDS011;6540;50.858;7.232;2023-02-25T00:58:26;6.63;;;2.77;;
12950;SDS011;6540;50.858;7.232;2023-02-25T01:00:51;5.60;;;2.73;;
12950;SDS011;6540;50.858;7.232;2023-02-25T01:03:17;3.97;;;1.97;;
12950;SDS011;6540;50.858;7.232;2023-02-25T01:05:42;6.17;;;2.57;;
12950;SDS011;6540;50.858;7.232;2023-02-25T01:08:13;8.27;;;2.33;;
12950;SDS011;6540;50.858;7.232;2023-02-25T01:10:39;7.93;;;3.03;;
12950;SDS011;6540;50.858;7.232;2023-02-25T01:13:04;7.13;;;2.67;;
12950;SDS011;6540;50.858;7.232;2023-02-25T01:15:30;5.70;;;2.83;;
12950;SDS011;6540;50.858;7.232;2023-02-25T01:17:55;11.67;;;2.47;;
12950;SDS011;6540;50.858;7.232;2023-02-25T01:20:20;5.30;;;2.50;;
12950;SDS011;6540;50.858;7.232;2023-02-25T01:22:48;6.77;;;2.57;;
12950;SDS011;6540;50.858;7.232;2023-02-25T01:25:13;8.00;;;2.97;;
12950;SDS011;6540;50.858;7.232;2023-02-25T01:27:41;8.07;;;2.73;;
12950;SDS011;6540;50.858;7.232;2023-02-25T01:30:06;7.10;;;2.83;;
12950;SDS011;6540;50.858;7.232;2023-02-25T01:32:33;12.27;;;2.90;;
12950;SDS011;6540;50.858;7.232;2023-02-25T01:34:58;7.07;;;2.73;;
12950;SDS011;6540;50.858;7.232;2023-02-25T01:37:24;10.17;;;2.67;;
12950;SDS011;6540;50.858;7.232;2023-02-25T01:39:49;12.07;;;2.83;;
12950;SDS011;6540;50.858;7.232;2023-02-25T01:42:15;6.90;;;2.83;;
12950;SDS011;6540;50.858;7.232;2023-02-25T01:47:35;6.80;;;2.37;;
12950;SDS011;6540;50.858;7.232;2023-02-25T01:50:01;3.10;;;1.97;;
12950;SDS011;6540;50.858;7.232;2023-02-25T01:52:28;10.50;;;2.93;;
12950;SDS011;6540;50.858;7.232;2023-02-25T01:54:54;8.33;;;2.27;;
12950;SDS011;6540;50.858;7.232;2023-02-25T01:57:22;7.77;;;2.07;;
12950;SDS011;6540;50.858;7.232;2023-02-25T01:59:49;3.03;;;1.90;;
12950;SDS011;6540;50.858;7.232;2023-02-25T02:02:17;5.73;;;2.77;;
12950;SDS011;6540;50.858;7.232;2023-02-25T02:04:45;12.00;;;2.30;;
12950;SDS011;6540;50.858;7.232;2023-02-25T02:07:15;10.77;;;2.50;;
12950;SDS011;6540;50.858;7.232;2023-02-25T02:09:40;5.50;;;1.83;;
12950;SDS011;6540;50.858;7.232;2023-02-25T02:12:20;6.33;;;1.93;;
12950;SDS011;6540;50.858;7.232;2023-02-25T02:14:47;6.77;;;2.93;;
12950;SDS011;6540;50.858;7.232;2023-02-25T02:38:30;3.40;;;1.67;;
12950;SDS011;6540;50.858;7.232;2023-02-25T02:46:50;10.67;;;2.53;;
12950;SDS011;6540;50.858;7.232;2023-02-25T02:49:34;7.87;;;2.23;;
12950;SDS011;6540;50.858;7.232;2023-02-25T02:52:29;5.83;;;1.83;;
12950;SDS011;6540;50.858;7.232;2023-02-25T02:55:05;7.70;;;2.23;;
12950;SDS011;6540;50.858;7.232;2023-02-25T02:57:37;9.70;;;2.60;;
12950;SDS011;6540;50.858;7.232;2023-02-25T03:00:08;7.77;;;2.33;;
12950;SDS011;6540;50.858;7.232;2023-02-25T03:02:37;2.60;;;1.07;;
12950;SDS011;6540;50.858;7.232;2023-02-25T03:05:06;4.80;;;1.97;;
12950;SDS011;6540;50.858;7.232;2023-02-25T03:07:35;4.67;;;2.40;;
12950;SDS011;6540;50.858;7.232;2023-02-25T03:10:07;6.70;;;2.77;;
12950;SDS011;6540;50.858;7.232;2023-02-25T03:12:38;8.10;;;1.63;;
12950;SDS011;6540;50.858;7.232;2023-02-25T03:15:04;6.73;;;2.17;;
12950;SDS011;6540;50.858;7.232;2023-02-25T03:17:31;8.20;;;2.37;;
12950;SDS011;6540;50.858;7.232;2023-02-25T03:20:18;6.57;;;2.33;;
12950;SDS011;6540;50.858;7.232;2023-02-25T03:22:48;9.70;;;3.13;;
12950;SDS011;6540;50.858;7.232;2023-02-25T03:25:17;6.00;;;1.83;;
12950;SDS011;6540;50.858;7.232;2023-02-25T03:27:47;9.23;;;2.50;;
12950;SDS011;6540;50.858;7.232;2023-02-25T03:33:12;6.90;;;2.40;;
12950;SDS011;6540;50.858;7.232;2023-02-25T03:35:41;10.73;;;2.83;;
12950;SDS011;6540;50.858;7.232;2023-02-25T03:38:12;7.40;;;3.20;;
12950;SDS011;6540;50.858;7.232;2023-02-25T03:40:40;6.97;;;2.13;;
12950;SDS011;6540;50.858;7.232;2023-02-25T03:43:11;6.93;;;2.17;;
12950;SDS011;6540;50.858;7.232;2023-02-25T03:45:45;8.40;;;1.83;;
12950;SDS011;6540;50.858;7.232;2023-02-25T03:48:11;8.50;;;2.27;;
12950;SDS011;6540;50.858;7.232;2023-02-25T03:50:39;7.10;;;2.27;;
12950;SDS011;6540;50.858;7.232;2023-02-25T03:53:09;6.47;;;1.93;;
12950;SDS011;6540;50.858;7.232;2023-02-25T03:55:35;8.20;;;2.10;;
12950;SDS011;6540;50.858;7.232;2023-02-25T03:58:00;4.93;;;2.43;;
12950;SDS011;6540;50.858;7.232;2023-02-25T04:00:28;9.63;;;2.27;;
12950;SDS011;6540;50.858;7.232;2023-02-25T04:02:55;10.40;;;2.23;;
12950;SDS011;6540;50.858;7.232;2023-02-25T04:05:22;4.57;;;2.23;;
12950;SDS011;6540;50.858;7.232;2023-02-25T04:07:52;4.53;;;2.10;;
12950;SDS011;6540;50.858;7.232;2023-02-25T04:10:21;9.43;;;2.60;;
12950;SDS011;6540;50.858;7.232;2023-02-25T04:12:46;9.97;;;2.77;;
12950;SDS011;6540;50.858;7.232;2023-02-25T04:15:14;6.83;;;2.87;;
12950;SDS011;6540;50.858;7.232;2023-02-25T04:17:40;8.13;;;2.90;;
12950;SDS011;6540;50.858;7.232;2023-02-25T04:20:06;6.20;;;1.70;;
12950;SDS011;6540;50.858;7.232;2023-02-25T04:22:32;7.40;;;2.77;;
12950;SDS011;6540;50.858;7.232;2023-02-25T04:24:58;5.87;;;3.03;;
12950;SDS011;6540;50.858;7.232;2023-02-25T04:27:23;1.83;;;1.53;;
12950;SDS011;6540;50.858;7.232;2023-02-25T04:29:49;8.20;;;3.03;;
12950;SDS011;6540;50.858;7.232;2023-02-25T04:32:14;11.60;;;2.67;;
12950;SDS011;6540;50.858;7.232;2023-02-25T04:34:39;2.50;;;1.70;;
12950;SDS011;6540;50.858;7.232;2023-02-25T04:37:05;5.60;;;2.87;;
12950;SDS011;6540;50.858;7.232;2023-02-25T04:39:31;11.67;;;3.23;;
12950;SDS011;6540;50.858;7.232;2023-02-25T04:41:57;14.40;;;2.60;;
12950;SDS011;6540;50.858;7.232;2023-02-25T04:44:23;8.10;;;2.80;;
12950;SDS011;6540;50.858;7.232;2023-02-25T04:46:48;5.30;;;1.73;;
12950;SDS011;6540;50.858;7.232;2023-02-25T04:49:16;8.97;;;2.30;;
12950;SDS011;6540;50.858;7.232;2023-02-25T04:51:43;5.83;;;2.77;;
12950;SDS011;6540;50.858;7.232;2023-02-25T04:54:08;8.00;;;3.23;;
12950;SDS011;6540;50.858;7.232;2023-02-25T04:56:34;12.87;;;2.60;;
12950;SDS011;6540;50.858;7.232;2023-02-25T04:59:00;7.97;;;1.97;;
12950;SDS011;6540;50.858;7.232;2023-02-25T05:01:26;4.93;;;2.13;;
12950;SDS011;6540;50.858;7.232;2023-02-25T05:03:51;4.13;;;1.73;;
12950;SDS011;6540;50.858;7.232;2023-02-25T05:06:21;9.63;;;2.53;;
12950;SDS011;6540;50.858;7.232;2023-02-25T05:08:50;8.50;;;2.40;;
12950;SDS011;6540;50.858;7.232;2023-02-25T05:11:15;7.70;;;2.60;;
12950;SDS011;6540;50.858;7.232;2023-02-25T05:13:41;2.97;;;2.00;;
12950;SDS011;6540;50.858;7.232;2023-02-25T05:16:08;3.93;;;2.30;;
12950;SDS011;6540;50.858;7.232;2023-02-25T05:18:42;10.97;;;2.17;;
12950;SDS011;6540;50.858;7.232;2023-02-25T05:21:14;7.73;;;2.20;;
12950;SDS011;6540;50.858;7.232;2023-02-25T05:23:45;5.47;;;2.20;;
12950;SDS011;6540;50.858;7.232;2023-02-25T05:26:12;11.53;;;2.13;;
12950;SDS011;6540;50.858;7.232;2023-02-25T05:28:39;5.07;;;2.23;;
12950;SDS011;6540;50.858;7.232;2023-02-25T05:31:05;3.93;;;1.30;;
12950;SDS011;6540;50.858;7.232;2023-02-25T05:33:32;7.80;;;2.17;;
12950;SDS011;6540;50.858;7.232;2023-02-25T05:35:59;9.27;;;3.30;;
12950;SDS011;6540;50.858;7.232;2023-02-25T05:38:24;8.17;;;2.37;;
12950;SDS011;6540;50.858;7.232;2023-02-25T05:40:50;7.20;;;2.40;;
12950;SDS011;6540;50.858;7.232;2023-02-25T05:43:15;5.10;;;2.00;;
12950;SDS011;6540;50.858;7.232;2023-02-25T05:45:41;5.07;;;2.37;;
12950;SDS011;6540;50.858;7.232;2023-02-25T05:48:06;5.87;;;2.03;;
12950;SDS011;6540;50.858;7.232;2023-02-25T05:50:31;4.63;;;2.33;;
12950;SDS011;6540;50.858;7.232;2023-02-25T05:53:01;4.83;;;2.07;;
12950;SDS011;6540;50.858;7.232;2023-02-25T05:55:27;4.50;;;1.93;;
12950;SDS011;6540;50.858;7.232;2023-02-25T05:57:52;10.80;;;2.30;;
12950;SDS011;6540;50.858;7.232;2023-02-25T06:00:17;7.90;;;2.30;;
12950;SDS011;6540;50.858;7.232;2023-02-25T06:02:45;6.50;;;2.70;;
12950;SDS011;6540;50.858;7.232;2023-02-25T06:05:11;14.77;;;3.27;;
12950;SDS011;6540;50.858;7.232;2023-02-25T06:07:37;10.30;;;2.60;;
12950;SDS011;6540;50.858;7.232;2023-02-25T06:10:03;5.70;;;1.97;;
12950;SDS011;6540;50.858;7.232;2023-02-25T06:12:30;6.70;;;2.23;;
12950;SDS011;6540;50.858;7.232;2023-02-25T06:14:57;6.40;;;2.03;;
12950;SDS011;6540;50.858;7.232;2023-02-25T06:17:23;5.93;;;1.80;;
12950;SDS011;6540;50.858;7.232;2023-02-25T06:19:49;11.10;;;1.87;;
12950;SDS011;6540;50.858;7.232;2023-02-25T06:22:16;9.43;;;2.20;;
12950;SDS011;6540;50.858;7.232;2023-02-25T06:24:42;11.03;;;2.00;;
12950;SDS011;6540;50.858;7.232;2023-02-25T06:27:08;6.20;;;2.07;;
12950;SDS011;6540;50.858;7.232;2023-02-25T06:29:33;7.93;;;2.00;;
12950;SDS011;6540;50.858;7.232;2023-02-25T06:31:59;5.70;;;2.27;;
12950;SDS011;6540;50.858;7.232;2023-02-25T06:34:25;3.90;;;2.10;;
12950;SDS011;6540;50.858;7.232;2023-02-25T06:36:56;6.37;;;3.63;;
12950;SDS011;6540;50.858;7.232;2023-02-25T06:39:22;8.57;;;2.07;;
12950;SDS011;6540;50.858;7.232;2023-02-25T06:41:47;7.00;;;2.37;;
12950;SDS011;6540;50.858;7.232;2023-02-25T06:44:13;7.10;;;2.07;;
12950;SDS011;6540;50.858;7.232;2023-02-25T06:46:38;8.53;;;2.53;;
12950;SDS011;6540;50.858;7.232;2023-02-25T06:49:04;10.17;;;2.73;;
12950;SDS011;6540;50.858;7.232;2023-02-25T06:51:29;10.83;;;2.70;;
12950;SDS011;6540;50.858;7.232;2023-02-25T06:53:54;9.30;;;2.70;;
12950;SDS011;6540;50.858;7.232;2023-02-25T06:56:20;9.27;;;2.00;;
12950;SDS011;6540;50.858;7.232;2023-02-25T06:58:45;6.83;;;2.23;;
12950;SDS011;6540;50.858;7.232;2023-02-25T07:01:13;5.60;;;2.30;;
12950;SDS011;6540;50.858;7.232;2023-02-25T07:03:39;5.10;;;2.00;;
12950;SDS011;6540;50.858;7.232;2023-02-25T07:06:05;8.63;;;2.23;;
12950;SDS011;6540;50.858;7.232;2023-02-25T07:08:31;9.47;;;2.37;;
12950;SDS011;6540;50.858;7.232;2023-02-25T07:11:08;4.30;;;2.00;;
12950;SDS011;6540;50.858;7.232;2023-02-25T07:13:38;5.10;;;2.13;;
12950;SDS011;6540;50.858;7.232;2023-02-25T07:16:03;8.17;;;2.60;;
12950;SDS011;6540;50.858;7.232;2023-02-25T07:18:29;5.10;;;2.07;;
12950;SDS011;6540;50.858;7.232;2023-02-25T07:20:56;6.27;;;1.73;;
12950;SDS011;6540;50.858;7.232;2023-02-25T07:23:22;11.23;;;2.13;;
12950;SDS011;6540;50.858;7.232;2023-02-25T07:25:47;5.57;;;1.53;;
12950;SDS011;6540;50.858;7.232;2023-02-25T07:28:12;9.87;;;2.20;;
12950;SDS011;6540;50.858;7.232;2023-02-25T07:30:38;11.37;;;2.07;;
12950;SDS011;6540;50.858;7.232;2023-02-25T07:33:03;8.47;;;2.53;;
12950;SDS011;6540;50.858;7.232;2023-02-25T07:35:28;9.57;;;2.70;;
12950;SDS011;6540;50.858;7.232;2023-02-25T07:37:54;4.90;;;2.10;;
12950;SDS011;6540;50.858;7.232;2023-02-25T07:40:19;13.13;;;2.53;;
12950;SDS011;6540;50.858;7.232;2023-02-25T07:42:44;4.93;;;2.07;;
12950;SDS011;6540;50.858;7.232;2023-02-25T07:45:10;3.83;;;2.13;;
12950;SDS011;6540;50.858;7.232;2023-02-25T07:47:36;9.27;;;2.27;;
12950;SDS011;6540;50.858;7.232;2023-02-25T07:50:03;8.13;;;3.03;;
12950;SDS011;6540;50.858;7.232;2023-02-25T07:52:30;7.13;;;2.40;;
12950;SDS011;6540;50.858;7.232;2023-02-25T07:54:55;7.07;;;2.07;;
12950;SDS011;6540;50.858;7.232;2023-02-25T07:57:20;7.20;;;1.90;;
12950;SDS011;6540;50.858;7.232;2023-02-25T07:59:46;8.20;;;2.30;;
12950;SDS011;6540;50.858;7.232;2023-02-25T08:02:12;10.33;;;2.40;;
12950;SDS011;6540;50.858;7.232;2023-02-25T08:04:38;4.63;;;2.00;;
12950;SDS011;6540;50.858;7.232;2023-02-25T08:07:03;6.30;;;2.13;;
12950;SDS011;6540;50.858;7.232;2023-02-25T08:09:29;5.53;;;3.07;;
12950;SDS011;6540;50.858;7.232;2023-02-25T08:11:54;9.20;;;2.57;;
12950;SDS011;6540;50.858;7.232;2023-02-25T08:14:20;6.73;;;2.20;;
12950;SDS011;6540;50.858;7.232;2023-02-25T08:16:46;8.90;;;1.90;;
12950;SDS011;6540;50.858;7.232;2023-02-25T08:19:12;7.47;;;2.47;;
12950;SDS011;6540;50.858;7.232;2023-02-25T08:21:38;9.93;;;2.30;;
12950;SDS011;6540;50.858;7.232;2023-02-25T08:24:04;11.67;;;2.70;;
12950;SDS011;6540;50.858;7.232;2023-02-25T08:26:31;7.13;;;2.27;;
12950;SDS011;6540;50.858;7.232;2023-02-25T08:28:56;5.47;;;2.23;;
12950;SDS011;6540;50.858;7.232;2023-02-25T08:31:22;10.20;;;2.53;;
12950;SDS011;6540;50.858;7.232;2023-02-25T08:33:48;11.80;;;2.50;;
12950;SDS011;6540;50.858;7.232;2023-02-25T08:36:23;6.73;;;2.70;;
12950;SDS011;6540;50.858;7.232;2023-02-25T08:38:51;10.07;;;3.03;;
12950;SDS011;6540;50.858;7.232;2023-02-25T08:41:18;5.20;;;2.17;;
12950;SDS011;6540;50.858;7.232;2023-02-25T08:43:50;8.33;;;2.40;;
12950;SDS011;6540;50.858;7.232;2023-02-25T08:46:18;5.80;;;2.80;;
12950;SDS011;6540;50.858;7.232;2023-02-25T08:48:44;11.80;;;2.83;;
12950;SDS011;6540;50.858;7.232;2023-02-25T08:51:13;15.37;;;2.53;;
12950;SDS011;6540;50.858;7.232;2023-02-25T08:53:39;7.70;;;2.77;;
12950;SDS011;6540;50.858;7.232;2023-02-25T08:56:09;4.93;;;2.20;;
12950;SDS011;6540;50.858;7.232;2023-02-25T08:58:36;5.27;;;2.13;;
12950;SDS011;6540;50.858;7.232;2023-02-25T09:01:06;14.83;;;2.93;;
12950;SDS011;6540;50.858;7.232;2023-02-25T09:03:39;17.57;;;2.83;;
12950;SDS011;6540;50.858;7.232;2023-02-25T09:06:15;11.60;;;2.80;;
12950;SDS011;6540;50.858;7.232;2023-02-25T09:08:41;8.67;;;2.33;;
12950;SDS011;6540;50.858;7.232;2023-02-25T09:11:06;9.87;;;2.30;;
12950;SDS011;6540;50.858;7.232;2023-02-25T09:13:32;10.70;;;2.50;;
12950;SDS011;6540;50.858;7.232;2023-02-25T09:15:57;10.13;;;2.60;;
12950;SDS011;6540;50.858;7.232;2023-02-25T09:18:23;10.97;;;3.10;;
12950;SDS011;6540;50.858;7.232;2023-02-25T09:20:49;10.47;;;2.53;;
12950;SDS011;6540;50.858;7.232;2023-02-25T09:23:15;12.43;;;3.13;;
12950;SDS011;6540;50.858;7.232;2023-02-25T09:25:40;10.77;;;2.70;;
12950;SDS011;6540;50.858;7.232;2023-02-25T09:28:08;12.27;;;2.70;;
12950;SDS011;6540;50.858;7.232;2023-02-25T09:30:33;9.97;;;3.20;;
12950;SDS011;6540;50.858;7.232;2023-02-25T09:32:59;8.93;;;2.33;;
12950;SDS011;6540;50.858;7.232;2023-02-25T09:35:24;5.57;;;1.87;;
12950;SDS011;6540;50.858;7.232;2023-02-25T09:37:49;6.17;;;1.90;;
12950;SDS011;6540;50.858;7.232;2023-02-25T09:40:15;7.60;;;2.37;;
12950;SDS011;6540;50.858;7.232;2023-02-25T09:45:17;8.17;;;2.40;;
12950;SDS011;6540;50.858;7.232;2023-02-25T09:47:45;7.97;;;3.40;;
12950;SDS011;6540;50.858;7.232;2023-02-25T09:50:22;12.87;;;3.33;;
12950;SDS011;6540;50.858;7.232;2023-02-25T09:53:03;7.30;;;2.70;;
12950;SDS011;6540;50.858;7.232;2023-02-25T10:00:44;12.53;;;4.00;;
12950;SDS011;6540;50.858;7.232;2023-02-25T10:03:33;12.07;;;5.07;;
12950;SDS011;6540;50.858;7.232;2023-02-25T10:14:55;9.17;;;4.67;;
12950;SDS011;6540;50.858;7.232;2023-02-25T10:28:36;11.97;;;4.43;;
12950;SDS011;6540;50.858;7.232;2023-02-25T10:31:05;15.30;;;5.40;;
12950;SDS011;6540;50.858;7.232;2023-02-25T10:33:33;10.13;;;5.00;;
12950;SDS011;6540;50.858;7.232;2023-02-25T10:38:34;12.53;;;4.00;;
12950;SDS011;6540;50.858;7.232;2023-02-25T10:41:03;9.90;;;4.83;;
12950;SDS011;6540;50.858;7.232;2023-02-25T10:43:29;7.97;;;4.83;;
12950;SDS011;6540;50.858;7.232;2023-02-25T10:45:57;9.20;;;4.93;;
12950;SDS011;6540;50.858;7.232;2023-02-25T10:48:27;4.43;;;2.83;;
12950;SDS011;6540;50.858;7.232;2023-02-25T10:51:06;5.07;;;3.30;;
12950;SDS011;6540;50.858;7.232;2023-02-25T10:53:36;8.63;;;4.40;;
12950;SDS011;6540;50.858;7.232;2023-02-25T10:56:44;7.23;;;4.63;;
12950;SDS011;6540;50.858;7.232;2023-02-25T10:59:22;8.77;;;4.43;;
12950;SDS011;6540;50.858;7.232;2023-02-25T11:01:48;7.87;;;4.87;;
12950;SDS011;6540;50.858;7.232;2023-02-25T11:04:14;9.63;;;5.23;;
12950;SDS011;6540;50.858;7.232;2023-02-25T11:06:43;7.57;;;4.13;;
12950;SDS011;6540;50.858;7.232;2023-02-25T11:14:35;4.10;;;3.17;;
12950;SDS011;6540;50.858;7.232;2023-02-25T11:17:03;7.60;;;3.63;;
12950;SDS011;6540;50.858;7.232;2023-02-25T11:19:30;5.97;;;3.57;;
12950;SDS011;6540;50.858;7.232;2023-02-25T11:21:59;5.73;;;3.57;;
12950;SDS011;6540;50.858;7.232;2023-02-25T11:24:33;11.90;;;3.40;;
12950;SDS011;6540;50.858;7.232;2023-02-25T11:27:01;7.57;;;3.20;;
12950;SDS011;6540;50.858;7.232;2023-02-25T11:29:36;5.93;;;2.70;;
12950;SDS011;6540;50.858;7.232;2023-02-25T11:32:14;1.83;;;1.60;;
12950;SDS011;6540;50.858;7.232;2023-02-25T11:34:48;4.57;;;2.23;;
12950;SDS011;6540;50.858;7.232;2023-02-25T11:37:37;2.13;;;1.83;;
12950;SDS011;6540;50.858;7.232;2023-02-25T11:43:49;5.60;;;1.97;;
12950;SDS011;6540;50.858;7.232;2023-02-25T11:46:23;7.03;;;2.30;;
12950;SDS011;6540;50.858;7.232;2023-02-25T11:48:53;5.27;;;2.03;;
12950;SDS011;6540;50.858;7.232;2023-02-25T11:59:47;2.90;;;2.07;;
12950;SDS011;6540;50.858;7.232;2023-02-25T12:07:57;4.27;;;1.90;;
12950;SDS011;6540;50.858;7.232;2023-02-25T12:16:08;1.87;;;1.20;;
12950;SDS011;6540;50.858;7.232;2023-02-25T12:26:44;2.40;;;1.90;;
12950;SDS011;6540;50.858;7.232;2023-02-25T12:32:20;4.47;;;2.00;;
12950;SDS011;6540;50.858;7.232;2023-02-25T12:37:27;3.13;;;1.37;;
12950;SDS011;6540;50.858;7.232;2023-02-25T12:42:53;4.27;;;1.70;;
12950;SDS011;6540;50.858;7.232;2023-02-25T12:45:45;2.33;;;1.40;;
12950;SDS011;6540;50.858;7.232;2023-02-25T13:13:52;2.47;;;1.13;;
12950;SDS011;6540;50.858;7.232;2023-02-25T13:24:47;0.83;;;0.83;;
12950;SDS011;6540;50.858;7.232;2023-02-25T13:51:10;4.50;;;1.53;;
12950;SDS011;6540;50.858;7.232;2023-02-25T14:24:17;6.07;;;1.90;;
12950;SDS011;6540;50.858;7.232;2023-02-25T14:38:33;2.40;;;1.50;;
12950;SDS011;6540;50.858;7.232;2023-02-25T14:43:58;8.60;;;2.50;;
12950;SDS011;6540;50.858;7.232;2023-02-25T14:47:03;5.43;;;2.00;;
12950;SDS011;6540;50.858;7.232;2023-02-25T14:49:29;1.20;;;1.10;;
12950;SDS011;6540;50.858;7.232;2023-02-25T14:55:15;3.97;;;1.17;;
12950;SDS011;6540;50.858;7.232;2023-02-25T14:57:53;3.70;;;1.60;;
12950;SDS011;6540;50.858;7.232;2023-02-25T15:20:39;3.53;;;1.77;;
12950;SDS011;6540;50.858;7.232;2023-02-25T15:33:23;3.60;;;1.40;;
12950;SDS011;6540;50.858;7.232;2023-02-25T15:35:58;1.20;;;1.13;;
12950;SDS011;6540;50.858;7.232;2023-02-25T15:38:38;4.40;;;1.90;;
12950;SDS011;6540;50.858;7.232;2023-02-25T15:41:28;1.67;;;0.90;;
12950;SDS011;6540;50.858;7.232;2023-02-25T15:54:07;1.10;;;1.03;;
12950;SDS011;6540;50.858;7.232;2023-02-25T15:56:49;2.30;;;0.70;;
12950;SDS011;6540;50.858;7.232;2023-02-25T16:04:53;1.07;;;1.00;;
12950;SDS011;6540;50.858;7.232;2023-02-25T16:07:20;2.17;;;1.70;;
12950;SDS011;6540;50.858;7.232;2023-02-25T16:09:49;1.27;;;1.00;;
12950;SDS011;6540;50.858;7.232;2023-02-25T16:12:19;1.37;;;1.27;;
12950;SDS011;6540;50.858;7.232;2023-02-25T16:14:45;1.40;;;1.23;;
12950;SDS011;6540;50.858;7.232;2023-02-25T16:17:30;0.73;;;0.73;;
12950;SDS011;6540;50.858;7.232;2023-02-25T16:19:59;3.53;;;1.43;;
12950;SDS011;6540;50.858;7.232;2023-02-25T16:22:35;1.00;;;1.00;;
12950;SDS011;6540;50.858;7.232;2023-02-25T16:25:01;1.27;;;1.00;;
12950;SDS011;6540;50.858;7.232;2023-02-25T16:27:31;0.63;;;0.63;;
12950;SDS011;6540;50.858;7.232;2023-02-25T16:30:10;1.27;;;1.20;;
12950;SDS011;6540;50.858;7.232;2023-02-25T16:36:28;1.00;;;0.90;;
12950;SDS011;6540;50.858;7.232;2023-02-25T16:38:45;0.90;;;0.90;;
12950;SDS011;6540;50.858;7.232;2023-02-25T16:41:14;2.30;;;1.30;;
12950;SDS011;6540;50.858;7.232;2023-02-25T16:43:40;3.53;;;2.40;;
12950;SDS011;6540;50.858;7.232;2023-02-25T16:46:19;2.57;;;1.90;;
12950;SDS011;6540;50.858;7.232;2023-02-25T16:51:27;1.43;;;1.33;;
12950;SDS011;6540;50.858;7.232;2023-02-25T16:54:17;0.90;;;0.90;;
12950;SDS011;6540;50.858;7.232;2023-02-25T16:56:44;1.20;;;1.10;;
12950;SDS011;6540;50.858;7.232;2023-02-25T17:01:38;1.80;;;1.03;;
12950;SDS011;6540;50.858;7.232;2023-02-25T17:04:15;4.23;;;1.00;;
12950;SDS011;6540;50.858;7.232;2023-02-25T17:06:44;1.73;;;1.03;;
12950;SDS011;6540;50.858;7.232;2023-02-25T17:09:28;1.87;;;1.33;;
12950;SDS011;6540;50.858;7.232;2023-02-25T17:11:54;1.33;;;1.10;;
12950;SDS011;6540;50.858;7.232;2023-02-25T17:14:20;3.27;;;1.50;;
12950;SDS011;6540;50.858;7.232;2023-02-25T17:16:46;3.40;;;2.20;;
12950;SDS011;6540;50.858;7.232;2023-02-25T17:19:12;4.30;;;1.60;;
12950;SDS011;6540;50.858;7.232;2023-02-25T17:21:41;3.13;;;1.30;;
12950;SDS011;6540;50.858;7.232;2023-02-25T17:24:11;1.30;;;1.20;;
12950;SDS011;6540;50.858;7.232;2023-02-25T17:26:39;3.43;;;2.10;;
12950;SDS011;6540;50.858;7.232;2023-02-25T17:29:11;5.70;;;2.77;;
12950;SDS011;6540;50.858;7.232;2023-02-25T17:31:42;9.40;;;4.93;;
12950;SDS011;6540;50.858;7.232;2023-02-25T17:34:18;1.70;;;1.53;;
12950;SDS011;6540;50.858;7.232;2023-02-25T17:36:51;2.37;;;1.53;;
12950;SDS011;6540;50.858;7.232;2023-02-25T17:39:19;9.37;;;6.87;;
12950;SDS011;6540;50.858;7.232;2023-02-25T17:41:46;9.87;;;5.57;;
12950;SDS011;6540;50.858;7.232;2023-02-25T17:47:07;11.80;;;5.57;;
12950;SDS011;6540;50.858;7.232;2023-02-25T17:49:34;7.17;;;3.63;;
12950;SDS011;6540;50.858;7.232;2023-02-25T17:52:02;17.37;;;6.87;;
12950;SDS011;6540;50.858;7.232;2023-02-25T17:54:31;10.40;;;5.73;;
12950;SDS011;6540;50.858;7.232;2023-02-25T17:57:00;8.20;;;5.00;;
12950;SDS011;6540;50.858;7.232;2023-02-25T18:06:49;5.70;;;2.83;;
12950;SDS011;6540;50.858;7.232;2023-02-25T18:09:57;2.80;;;1.80;;
12950;SDS011;6540;50.858;7.232;2023-02-25T18:12:12;5.57;;;1.90;;
12950;SDS011;6540;50.858;7.232;2023-02-25T18:14:46;2.13;;;1.63;;
12950;SDS011;6540;50.858;7.232;2023-02-25T18:19:52;3.57;;;1.97;;
12950;SDS011;6540;50.858;7.232;2023-02-25T18:24:55;1.47;;;1.33;;
12950;SDS011;6540;50.858;7.232;2023-02-25T18:27:26;2.60;;;1.80;;
12950;SDS011;6540;50.858;7.232;2023-02-25T18:30:13;2.30;;;1.60;;
12950;SDS011;6540;50.858;7.232;2023-02-25T18:32:48;1.70;;;1.60;;
12950;SDS011;6540;50.858;7.232;2023-02-25T18:35:15;8.87;;;2.13;;
12950;SDS011;6540;50.858;7.232;2023-02-25T18:37:41;3.47;;;1.97;;
12950;SDS011;6540;50.858;7.232;2023-02-25T18:40:22;5.00;;;1.80;;
12950;SDS011;6540;50.858;7.232;2023-02-25T18:42:53;5.73;;;2.47;;
12950;SDS011;6540;50.858;7.232;2023-02-25T18:45:19;2.17;;;1.73;;
12950;SDS011;6540;50.858;7.232;2023-02-25T18:47:47;2.33;;;2.13;;
12950;SDS011;6540;50.858;7.232;2023-02-25T18:50:12;5.73;;;2.07;;
12950;SDS011;6540;50.858;7.232;2023-02-25T18:52:39;2.13;;;1.47;;
12950;SDS011;6540;50.858;7.232;2023-02-25T18:55:06;3.27;;;2.03;;
12950;SDS011;6540;50.858;7.232;2023-02-25T18:57:33;2.57;;;1.50;;
12950;SDS011;6540;50.858;7.232;2023-02-25T18:59:58;5.07;;;2.60;;
12950;SDS011;6540;50.858;7.232;2023-02-25T19:02:30;2.20;;;1.60;;
12950;SDS011;6540;50.858;7.232;2023-02-25T19:04:58;3.73;;;1.30;;
12950;SDS011;6540;50.858;7.232;2023-02-25T19:07:26;3.73;;;1.67;;
12950;SDS011;6540;50.858;7.232;2023-02-25T19:09:54;5.30;;;2.70;;
12950;SDS011;6540;50.858;7.232;2023-02-25T19:12:20;9.17;;;2.10;;
12950;SDS011;6540;50.858;7.232;2023-02-25T19:14:48;2.90;;;1.60;;
12950;SDS011;6540;50.858;7.232;2023-02-25T19:17:22;5.17;;;2.10;;
12950;SDS011;6540;50.858;7.232;2023-02-25T19:19:48;4.37;;;2.77;;
12950;SDS011;6540;50.858;7.232;2023-02-25T19:22:13;6.90;;;2.87;;
12950;SDS011;6540;50.858;7.232;2023-02-25T19:24:43;5.13;;;2.73;;
12950;SDS011;6540;50.858;7.232;2023-02-25T19:27:20;3.20;;;1.80;;
12950;SDS011;6540;50.858;7.232;2023-02-25T19:29:50;4.17;;;1.97;;
12950;SDS011;6540;50.858;7.232;2023-02-25T19:32:17;3.00;;;1.60;;
12950;SDS011;6540;50.858;7.232;2023-02-25T19:34:44;2.73;;;1.80;;
12950;SDS011;6540;50.858;7.232;2023-02-25T19:37:10;2.13;;;1.50;;
12950;SDS011;6540;50.858;7.232;2023-02-25T19:39:36;4.73;;;1.70;;
12950;SDS011;6540;50.858;7.232;2023-02-25T19:42:02;2.10;;;2.00;;
12950;SDS011;6540;50.858;7.232;2023-02-25T19:44:27;2.87;;;1.63;;
12950;SDS011;6540;50.858;7.232;2023-02-25T19:46:53;4.93;;;2.23;;
12950;SDS011;6540;50.858;7.232;2023-02-25T19:49:18;8.10;;;1.90;;
12950;SDS011;6540;50.858;7.232;2023-02-25T19:51:43;4.67;;;2.00;;
12950;SDS011;6540;50.858;7.232;2023-02-25T19:54:09;2.47;;;1.70;;
12950;SDS011;6540;50.858;7.232;2023-02-25T19:56:34;3.70;;;2.10;;